createdAt,value
2023-01-21T00:00:46.570Z,1020.97
2023-01-21T00:01:46.557Z,1020.93
2023-01-21T00:02:46.525Z,1020.98
2023-01-21T00:03:46.624Z,1021.00
2023-01-21T00:04:46.526Z,1020.96
2023-01-21T00:05:46.499Z,1021.05
2023-01-21T00:06:46.494Z,1020.97
2023-01-21T00:07:46.478Z,1021.06
2023-01-21T00:08:46.477Z,1021.03
2023-01-21T00:09:46.483Z,1021.01
2023-01-21T00:10:46.446Z,1021.04
2023-01-21T00:11:46.431Z,1021.03
2023-01-21T00:12:46.432Z,1020.98
2023-01-21T00:13:46.444Z,1021.04
2023-01-21T00:14:46.407Z,1021.03
2023-01-21T00:15:46.436Z,1021.06
2023-01-21T00:16:46.385Z,1021.03
2023-01-21T00:17:46.368Z,1021.02
2023-01-21T00:18:46.373Z,1021.06
2023-01-21T00:19:46.364Z,1021.00
2023-01-21T00:20:46.368Z,1021.03
2023-01-21T00:21:46.333Z,1021.06
2023-01-21T00:22:46.329Z,1021.04
2023-01-21T00:23:46.326Z,1021.11
2023-01-21T00:24:46.310Z,1021.07
2023-01-21T00:25:46.287Z,1021.13
2023-01-21T00:26:46.289Z,1021.12
2023-01-21T00:27:46.287Z,1021.05
2023-01-21T00:28:46.279Z,1021.12
2023-01-21T00:29:46.275Z,1021.08
2023-01-21T00:30:46.359Z,1021.12
2023-01-21T00:31:46.366Z,1021.16
2023-01-21T00:32:46.243Z,1021.13
2023-01-21T00:33:46.219Z,1021.15
2023-01-21T00:34:46.214Z,1021.19
2023-01-21T00:35:46.180Z,1021.19
2023-01-21T00:36:46.185Z,1021.24
2023-01-21T00:37:46.167Z,1021.24
2023-01-21T00:38:46.158Z,1021.22
2023-01-21T00:39:46.157Z,1021.25
2023-01-21T00:40:46.137Z,1021.26
2023-01-21T00:41:46.124Z,1021.25
2023-01-21T00:42:46.111Z,1021.26
2023-01-21T00:43:46.113Z,1021.19
2023-01-21T00:44:46.086Z,1021.19
2023-01-21T00:45:46.125Z,1021.23
2023-01-21T00:46:46.071Z,1021.28
2023-01-21T00:47:46.078Z,1021.29
2023-01-21T00:48:46.044Z,1021.30
2023-01-21T00:49:46.038Z,1021.28
2023-01-21T00:50:46.064Z,1021.27
2023-01-21T00:51:46.021Z,1021.27
2023-01-21T00:52:46.012Z,1021.23
2023-01-21T00:53:45.996Z,1021.28
2023-01-21T00:54:45.990Z,1021.28
2023-01-21T00:55:45.979Z,1021.30
2023-01-21T00:56:45.972Z,1021.29
2023-01-21T00:57:45.962Z,1021.36
2023-01-21T00:58:45.965Z,1021.32
2023-01-21T00:59:45.940Z,1021.25
2023-01-21T01:00:45.930Z,1021.36
2023-01-21T01:01:45.980Z,1021.36
2023-01-21T01:02:45.967Z,1021.37
2023-01-21T01:03:45.906Z,1021.40
2023-01-21T01:04:45.895Z,1021.43
2023-01-21T01:05:45.877Z,1021.42
2023-01-21T01:06:45.872Z,1021.45
2023-01-21T01:07:45.862Z,1021.47
2023-01-21T01:08:45.847Z,1021.48
2023-01-21T01:09:45.837Z,1021.49
2023-01-21T01:10:45.823Z,1021.44
2023-01-21T01:11:45.833Z,1021.51
2023-01-21T01:12:45.797Z,1021.50
2023-01-21T01:13:45.800Z,1021.49
2023-01-21T01:14:45.773Z,1021.52
2023-01-21T01:15:45.784Z,1021.49
2023-01-21T01:16:45.751Z,1021.52
2023-01-21T01:17:45.800Z,1021.51
2023-01-21T01:18:45.736Z,1021.54
2023-01-21T01:19:45.732Z,1021.56
2023-01-21T01:20:46.591Z,1021.61
2023-01-21T01:21:45.705Z,1021.61
2023-01-21T01:22:45.698Z,1021.61
2023-01-21T01:23:45.699Z,1021.61
2023-01-21T01:24:45.688Z,1021.59
2023-01-21T01:25:45.668Z,1021.63
2023-01-21T01:26:45.651Z,1021.65
2023-01-21T01:27:45.656Z,1021.70
2023-01-21T01:28:45.679Z,1021.65
2023-01-21T01:29:45.622Z,1021.66
2023-01-21T01:30:46.283Z,1021.72
2023-01-21T01:31:45.778Z,1021.80
2023-01-21T01:32:45.592Z,1021.72
2023-01-21T01:33:45.655Z,1021.73
2023-01-21T01:34:45.574Z,1021.75
2023-01-21T01:35:45.569Z,1021.73
2023-01-21T01:36:45.551Z,1021.73
2023-01-21T01:37:45.533Z,1021.75
2023-01-21T01:38:45.538Z,1021.79
2023-01-21T01:39:45.522Z,1021.76
2023-01-21T01:40:45.501Z,1021.76
2023-01-21T01:41:45.506Z,1021.75
2023-01-21T01:42:45.483Z,1021.76
2023-01-21T01:43:45.490Z,1021.73
2023-01-21T01:44:45.469Z,1021.77
2023-01-21T01:45:45.460Z,1021.74
2023-01-21T01:46:45.497Z,1021.78
2023-01-21T01:47:45.435Z,1021.78
2023-01-21T01:48:45.425Z,1021.75
2023-01-21T01:49:45.443Z,1021.78
2023-01-21T01:50:45.443Z,1021.76
2023-01-21T01:51:45.398Z,1021.83
2023-01-21T01:52:45.398Z,1021.80
2023-01-21T01:53:45.388Z,1021.77
2023-01-21T01:54:45.362Z,1021.78
2023-01-21T01:55:45.353Z,1021.79
2023-01-21T01:56:45.357Z,1021.75
2023-01-21T01:57:45.339Z,1021.77
2023-01-21T01:58:45.320Z,1021.78
2023-01-21T01:59:45.307Z,1021.80
2023-01-21T02:00:45.311Z,1021.78
2023-01-21T02:01:45.299Z,1021.86
2023-01-21T02:02:45.323Z,1021.84
2023-01-21T02:03:45.269Z,1021.84
2023-01-21T02:04:45.266Z,1021.84
2023-01-21T02:05:45.269Z,1021.81
2023-01-21T02:06:45.236Z,1021.87
2023-01-21T02:07:45.222Z,1022.01
2023-01-21T02:08:45.234Z,1021.78
2023-01-21T02:09:45.204Z,1021.89
2023-01-21T02:10:45.193Z,1021.94
2023-01-21T02:11:45.195Z,1021.93
2023-01-21T02:12:45.181Z,1021.92
2023-01-21T02:13:45.163Z,1022.01
2023-01-21T02:14:45.161Z,1022.02
2023-01-21T02:15:45.149Z,1021.94
2023-01-21T02:16:45.154Z,1021.87
2023-01-21T02:17:45.126Z,1021.89
2023-01-21T02:18:45.113Z,1021.92
2023-01-21T02:19:52.632Z,1021.96
2023-01-21T02:20:45.091Z,1021.99
2023-01-21T02:21:45.114Z,1021.91
2023-01-21T02:22:45.086Z,1021.96
2023-01-21T02:23:45.063Z,1021.98
2023-01-21T02:24:45.053Z,1022.01
2023-01-21T02:25:45.050Z,1022.04
2023-01-21T02:26:45.044Z,1022.03
2023-01-21T02:27:45.023Z,1022.04
2023-01-21T02:28:45.014Z,1022.07
2023-01-21T02:29:45.041Z,1022.07
2023-01-21T02:30:45.032Z,1022.12
2023-01-21T02:31:45.004Z,1022.08
2023-01-21T02:32:44.974Z,1022.07
2023-01-21T02:33:44.952Z,1022.10
2023-01-21T02:34:44.944Z,1022.05
2023-01-21T02:35:44.957Z,1022.12
2023-01-21T02:36:44.921Z,1022.11
2023-01-21T02:37:44.951Z,1022.13
2023-01-21T02:38:44.918Z,1022.10
2023-01-21T02:39:44.897Z,1022.11
2023-01-21T02:40:44.909Z,1022.10
2023-01-21T02:41:44.894Z,1022.14
2023-01-21T02:42:44.866Z,1022.14
2023-01-21T02:43:44.850Z,1022.16
2023-01-21T02:44:44.840Z,1022.13
2023-01-21T02:45:44.836Z,1022.20
2023-01-21T02:46:44.905Z,1022.18
2023-01-21T02:47:44.825Z,1022.20
2023-01-21T02:48:44.813Z,1022.24
2023-01-21T02:49:44.786Z,1022.25
2023-01-21T02:50:44.901Z,1022.33
2023-01-21T02:51:44.776Z,1022.31
2023-01-21T02:52:44.787Z,1022.31
2023-01-21T02:53:44.779Z,1022.32
2023-01-21T02:54:44.745Z,1022.37
2023-01-21T02:55:44.726Z,1022.31
2023-01-21T02:56:44.725Z,1022.39
2023-01-21T02:57:44.725Z,1022.38
2023-01-21T02:58:44.699Z,1022.37
2023-01-21T02:59:44.695Z,1022.42
2023-01-21T03:00:44.714Z,1022.34
2023-01-21T03:01:44.701Z,1022.42
2023-01-21T03:02:44.683Z,1022.48
2023-01-21T03:03:44.656Z,1022.44
2023-01-21T03:04:44.647Z,1022.39
2023-01-21T03:05:44.641Z,1022.39
2023-01-21T03:06:44.613Z,1022.33
2023-01-21T03:07:44.618Z,1022.34
2023-01-21T03:08:44.605Z,1022.30
2023-01-21T03:09:44.613Z,1022.30
2023-01-21T03:10:44.567Z,1022.31
2023-01-21T03:11:44.555Z,1022.34
2023-01-21T03:12:44.549Z,1022.26
2023-01-21T03:13:44.565Z,1022.19
2023-01-21T03:14:44.534Z,1022.25
2023-01-21T03:15:44.523Z,1022.26
2023-01-21T03:16:44.515Z,1022.26
2023-01-21T03:17:44.510Z,1022.23
2023-01-21T03:18:44.500Z,1022.21
2023-01-21T03:19:44.494Z,1022.20
2023-01-21T03:20:44.479Z,1022.17
2023-01-21T03:21:44.468Z,1022.18
2023-01-21T03:22:44.456Z,1022.24
2023-01-21T03:23:44.450Z,1022.20
2023-01-21T03:24:44.428Z,1022.27
2023-01-21T03:25:44.440Z,1022.29
2023-01-21T03:26:44.408Z,1022.29
2023-01-21T03:27:44.407Z,1022.28
2023-01-21T03:28:44.403Z,1022.32
2023-01-21T03:29:44.384Z,1022.33
2023-01-21T03:30:44.371Z,1022.32
2023-01-21T03:31:44.410Z,1022.34
2023-01-21T03:32:44.348Z,1022.39
2023-01-21T03:33:46.658Z,1022.39
2023-01-21T03:34:44.329Z,1022.45
2023-01-21T03:35:44.327Z,1022.43
2023-01-21T03:36:44.317Z,1022.43
2023-01-21T03:37:44.299Z,1022.47
2023-01-21T03:38:44.285Z,1022.43
2023-01-21T03:39:44.286Z,1022.49
2023-01-21T03:40:44.262Z,1022.45
2023-01-21T03:41:44.282Z,1022.51
2023-01-21T03:42:44.272Z,1022.46
2023-01-21T03:43:44.231Z,1022.47
2023-01-21T03:44:44.211Z,1022.40
2023-01-21T03:45:44.245Z,1022.42
2023-01-21T03:46:44.207Z,1022.40
2023-01-21T03:47:44.194Z,1022.36
2023-01-21T03:48:44.201Z,1022.38
2023-01-21T03:49:44.166Z,1022.37
2023-01-21T03:50:44.264Z,1022.40
2023-01-21T03:51:44.141Z,1022.34
2023-01-21T03:52:44.138Z,1022.30
2023-01-21T03:53:44.139Z,1022.27
2023-01-21T03:54:44.143Z,1022.28
2023-01-21T03:55:44.109Z,1022.34
2023-01-21T03:56:44.092Z,1022.30
2023-01-21T03:57:44.142Z,1022.41
2023-01-21T03:58:44.073Z,1022.37
2023-01-21T03:59:44.077Z,1022.46
2023-01-21T04:00:44.112Z,1022.44
2023-01-21T04:01:44.044Z,1022.44
2023-01-21T04:02:44.043Z,1022.44
2023-01-21T04:03:44.021Z,1022.49
2023-01-21T04:04:44.015Z,1022.42
2023-01-21T04:05:44.004Z,1022.46
2023-01-21T04:06:43.989Z,1022.51
2023-01-21T04:07:43.982Z,1022.45
2023-01-21T04:08:43.989Z,1022.44
2023-01-21T04:09:43.964Z,1022.32
2023-01-21T04:10:43.958Z,1022.38
2023-01-21T04:11:43.933Z,1022.41
2023-01-21T04:12:43.937Z,1022.29
2023-01-21T04:13:43.942Z,1022.40
2023-01-21T04:14:43.907Z,1022.40
2023-01-21T04:15:43.897Z,1022.37
2023-01-21T04:16:43.924Z,1022.32
2023-01-21T04:17:43.887Z,1022.40
2023-01-21T04:18:43.876Z,1022.32
2023-01-21T04:19:43.864Z,1022.35
2023-01-21T04:20:43.862Z,1022.24
2023-01-21T04:21:43.851Z,1022.23
2023-01-21T04:22:43.824Z,1022.38
2023-01-21T04:23:43.814Z,1022.31
2023-01-21T04:24:43.817Z,1022.40
2023-01-21T04:25:43.790Z,1022.38
2023-01-21T04:26:43.798Z,1022.33
2023-01-21T04:27:43.766Z,1022.34
2023-01-21T04:28:43.758Z,1022.34
2023-01-21T04:29:43.773Z,1022.27
2023-01-21T04:30:43.805Z,1022.32
2023-01-21T04:31:43.836Z,1022.31
2023-01-21T04:32:43.728Z,1022.26
2023-01-21T04:33:43.725Z,1022.22
2023-01-21T04:34:43.699Z,1022.29
2023-01-21T04:35:43.689Z,1022.29
2023-01-21T04:36:43.678Z,1022.26
2023-01-21T04:37:43.671Z,1022.35
2023-01-21T04:38:43.665Z,1022.32
2023-01-21T04:39:43.651Z,1022.31
2023-01-21T04:40:43.641Z,1022.32
2023-01-21T04:41:43.644Z,1022.40
2023-01-21T04:42:43.619Z,1022.30
2023-01-21T04:43:43.620Z,1022.29
2023-01-21T04:44:43.593Z,1022.27
2023-01-21T04:45:43.636Z,1022.37
2023-01-21T04:46:43.581Z,1022.34
2023-01-21T04:47:43.573Z,1022.31
2023-01-21T04:48:43.564Z,1022.30
2023-01-21T04:49:43.550Z,1022.38
2023-01-21T04:50:43.752Z,1022.44
2023-01-21T04:56:20.838Z,1022.46
2023-01-21T04:57:20.816Z,1022.42
2023-01-21T04:58:20.796Z,1022.40
2023-01-21T04:59:20.776Z,1022.50
2023-01-21T05:00:20.763Z,1022.44
2023-01-21T05:01:20.860Z,1022.46
2023-01-21T05:02:20.787Z,1022.48
2023-01-21T05:03:20.762Z,1022.43
2023-01-21T05:04:20.734Z,1022.45
2023-01-21T05:05:20.714Z,1022.47
2023-01-21T05:06:20.715Z,1022.53
2023-01-21T05:07:21.789Z,1022.54
2023-01-21T05:08:20.698Z,1022.58
2023-01-21T05:09:20.673Z,1022.61
2023-01-21T05:10:20.672Z,1022.69
2023-01-21T05:11:20.662Z,1022.60
2023-01-21T05:12:20.645Z,1022.65
2023-01-21T05:13:20.657Z,1022.62
2023-01-21T05:14:20.644Z,1022.60
2023-01-21T05:15:20.607Z,1022.60
2023-01-21T05:16:20.622Z,1022.66
2023-01-21T05:17:20.626Z,1022.61
2023-01-21T05:18:20.591Z,1022.66
2023-01-21T05:19:20.569Z,1022.67
2023-01-21T05:20:20.561Z,1022.69
2023-01-21T05:21:20.553Z,1022.65
2023-01-21T05:22:20.546Z,1022.69
2023-01-21T05:23:20.554Z,1022.66
2023-01-21T05:24:20.521Z,1022.73
2023-01-21T05:25:20.514Z,1022.69
2023-01-21T05:26:20.511Z,1022.69
2023-01-21T05:27:20.491Z,1022.67
2023-01-21T05:28:20.502Z,1022.58
2023-01-21T05:29:20.485Z,1022.63
2023-01-21T05:30:20.459Z,1022.67
2023-01-21T05:31:28.090Z,1022.66
2023-01-21T05:32:20.437Z,1022.66
2023-01-21T05:33:20.458Z,1022.70
2023-01-21T05:34:20.435Z,1022.70
2023-01-21T05:35:20.407Z,1022.70
2023-01-21T05:36:20.395Z,1022.72
2023-01-21T05:37:20.386Z,1022.74
2023-01-21T05:38:20.375Z,1022.73
2023-01-21T05:39:20.360Z,1022.71
2023-01-21T05:40:20.563Z,1022.74
2023-01-21T05:41:20.359Z,1022.62
2023-01-21T05:42:20.341Z,1022.65
2023-01-21T05:43:20.330Z,1022.64
2023-01-21T05:44:20.322Z,1022.69
2023-01-21T05:45:20.308Z,1022.66
2023-01-21T05:46:20.346Z,1022.72
2023-01-21T05:47:20.284Z,1022.69
2023-01-21T05:48:20.275Z,1022.69
2023-01-21T05:49:20.280Z,1022.78
2023-01-21T05:50:20.284Z,1022.84
2023-01-21T05:51:20.314Z,1022.72
2023-01-21T05:52:20.233Z,1022.63
2023-01-21T05:53:20.222Z,1022.81
2023-01-21T05:54:20.214Z,1022.81
2023-01-21T05:55:20.213Z,1022.89
2023-01-21T05:56:20.190Z,1022.87
2023-01-21T05:57:20.178Z,1022.80
2023-01-21T05:58:20.170Z,1022.81
2023-01-21T05:59:20.160Z,1022.85
2023-01-21T06:00:20.363Z,1022.90
2023-01-21T06:01:20.132Z,1022.90
2023-01-21T06:02:20.215Z,1022.81
2023-01-21T06:03:20.208Z,1022.88
2023-01-21T06:04:21.334Z,1022.92
2023-01-21T06:05:20.133Z,1022.98
2023-01-21T06:06:20.085Z,1022.95
2023-01-21T06:07:20.070Z,1022.94
2023-01-21T06:08:20.088Z,1022.92
2023-01-21T06:09:20.051Z,1022.94
2023-01-21T06:10:20.035Z,1022.95
2023-01-21T06:11:20.037Z,1022.89
2023-01-21T06:12:20.040Z,1022.93
2023-01-21T06:13:20.009Z,1022.95
2023-01-21T06:14:20.025Z,1022.98
2023-01-21T06:15:19.993Z,1022.96
2023-01-21T06:16:19.980Z,1022.97
2023-01-21T06:17:19.974Z,1022.99
2023-01-21T06:18:19.969Z,1022.93
2023-01-21T06:19:19.954Z,1022.97
2023-01-21T06:20:19.968Z,1023.03
2023-01-21T06:21:19.950Z,1022.97
2023-01-21T06:22:19.919Z,1023.03
2023-01-21T06:23:19.915Z,1023.01
2023-01-21T06:24:19.903Z,1022.95
2023-01-21T06:25:19.890Z,1023.00
2023-01-21T06:26:19.924Z,1022.97
2023-01-21T06:27:19.877Z,1022.98
2023-01-21T06:28:19.853Z,1022.90
2023-01-21T06:29:19.898Z,1022.94
2023-01-21T06:30:19.830Z,1022.98
2023-01-21T06:31:19.939Z,1022.94
2023-01-21T06:32:19.826Z,1022.92
2023-01-21T06:33:19.804Z,1022.96
2023-01-21T06:34:19.791Z,1022.96
2023-01-21T06:35:19.806Z,1022.98
2023-01-21T06:36:19.778Z,1022.94
2023-01-21T06:37:19.799Z,1022.94
2023-01-21T06:38:19.750Z,1023.03
2023-01-21T06:39:19.755Z,1022.95
2023-01-21T06:40:19.919Z,1022.98
2023-01-21T06:41:19.720Z,1023.08
2023-01-21T06:42:19.717Z,1023.08
2023-01-21T06:43:19.704Z,1023.07
2023-01-21T06:44:19.712Z,1023.11
2023-01-21T06:45:19.677Z,1023.09
2023-01-21T06:46:19.717Z,1023.09
2023-01-21T06:47:19.718Z,1023.05
2023-01-21T06:48:19.657Z,1023.16
2023-01-21T06:49:19.642Z,1023.13
2023-01-21T06:50:19.790Z,1023.22
2023-01-21T06:51:19.704Z,1023.24
2023-01-21T06:52:19.616Z,1023.17
2023-01-21T06:53:19.618Z,1023.19
2023-01-21T06:54:19.588Z,1023.17
2023-01-21T06:55:19.579Z,1023.14
2023-01-21T06:56:19.571Z,1023.18
2023-01-21T06:57:19.557Z,1023.19
2023-01-21T06:58:19.553Z,1023.15
2023-01-21T06:59:19.556Z,1023.16
2023-01-21T07:00:20.054Z,1023.17
2023-01-21T07:01:19.537Z,1023.17
2023-01-21T07:02:19.516Z,1023.14
2023-01-21T07:03:19.497Z,1023.23
2023-01-21T07:04:19.494Z,1023.23
2023-01-21T07:05:19.661Z,1023.23
2023-01-21T07:06:19.499Z,1023.30
2023-01-21T07:07:27.038Z,1023.28
2023-01-21T07:08:19.444Z,1023.27
2023-01-21T07:09:19.453Z,1023.27
2023-01-21T07:10:19.577Z,1023.29
2023-01-21T07:11:19.413Z,1023.28
2023-01-21T07:12:19.407Z,1023.27
2023-01-21T07:13:19.400Z,1023.25
2023-01-21T07:14:19.384Z,1023.28
2023-01-21T07:15:19.743Z,1023.27
2023-01-21T07:16:19.385Z,1023.23
2023-01-21T07:17:19.347Z,1023.29
2023-01-21T07:18:19.346Z,1023.29
2023-01-21T07:19:19.343Z,1023.31
2023-01-21T07:20:19.335Z,1023.29
2023-01-21T07:21:19.352Z,1023.29
2023-01-21T07:22:19.294Z,1023.36
2023-01-21T07:23:19.293Z,1023.32
2023-01-21T07:24:19.275Z,1023.35
2023-01-21T07:25:19.501Z,1023.39
2023-01-21T07:26:19.253Z,1023.41
2023-01-21T07:27:19.236Z,1023.38
2023-01-21T07:28:19.233Z,1023.47
2023-01-21T07:29:19.228Z,1023.37
2023-01-21T07:30:19.473Z,1023.38
2023-01-21T07:31:19.331Z,1023.39
2023-01-21T07:32:19.187Z,1023.40
2023-01-21T07:33:19.189Z,1023.36
2023-01-21T07:34:19.163Z,1023.39
2023-01-21T07:35:19.507Z,1023.42
2023-01-21T07:36:19.161Z,1023.41
2023-01-21T07:37:19.139Z,1023.40
2023-01-21T07:38:19.137Z,1023.45
2023-01-21T07:39:19.121Z,1023.43
2023-01-21T07:40:19.123Z,1023.41
2023-01-21T07:41:19.113Z,1023.35
2023-01-21T07:42:19.102Z,1023.40
2023-01-21T07:43:19.077Z,1023.40
2023-01-21T07:44:19.067Z,1023.40
2023-01-21T07:45:19.457Z,1023.43
2023-01-21T07:46:19.110Z,1023.44
2023-01-21T07:47:19.034Z,1023.41
2023-01-21T07:48:19.033Z,1023.46
2023-01-21T07:49:19.009Z,1023.40
2023-01-21T07:50:19.010Z,1023.38
2023-01-21T07:51:19.109Z,1023.40
2023-01-21T07:52:18.992Z,1023.47
2023-01-21T07:53:18.974Z,1023.44
2023-01-21T07:54:18.958Z,1023.44
2023-01-21T07:55:19.223Z,1023.51
2023-01-21T07:56:18.947Z,1023.51
2023-01-21T07:57:19.024Z,1023.48
2023-01-21T07:58:18.922Z,1023.48
2023-01-21T07:59:18.904Z,1023.55
2023-01-21T08:00:18.921Z,1023.53
2023-01-21T08:01:18.927Z,1023.56
2023-01-21T08:02:18.987Z,1023.57
2023-01-21T08:03:18.871Z,1023.60
2023-01-21T08:04:18.863Z,1023.59
2023-01-21T08:05:19.231Z,1023.65
2023-01-21T08:06:18.841Z,1023.65
2023-01-21T08:07:18.826Z,1023.62
2023-01-21T08:08:18.820Z,1023.65
2023-01-21T08:09:18.803Z,1023.62
2023-01-21T08:10:18.814Z,1023.65
2023-01-21T08:11:18.780Z,1023.63
2023-01-21T08:12:18.793Z,1023.68
2023-01-21T08:13:18.777Z,1023.72
2023-01-21T08:14:18.744Z,1023.71
2023-01-21T08:15:19.161Z,1023.75
2023-01-21T08:16:18.828Z,1023.77
2023-01-21T08:17:18.721Z,1023.77
2023-01-21T08:18:18.712Z,1023.81
2023-01-21T08:19:18.694Z,1023.81
2023-01-21T08:20:18.695Z,1023.74
2023-01-21T08:21:18.666Z,1023.63
2023-01-21T08:22:18.666Z,1023.71
2023-01-21T08:23:18.661Z,1023.67
2023-01-21T08:24:18.651Z,1023.77
2023-01-21T08:25:18.930Z,1023.72
2023-01-21T08:26:18.621Z,1023.71
2023-01-21T08:27:18.604Z,1023.72
2023-01-21T08:28:18.606Z,1023.73
2023-01-21T08:29:18.606Z,1023.71
2023-01-21T08:30:18.587Z,1023.70
2023-01-21T08:31:18.669Z,1023.73
2023-01-21T08:32:18.555Z,1023.66
2023-01-21T08:33:18.551Z,1023.71
2023-01-21T08:34:18.538Z,1023.68
2023-01-21T08:35:18.817Z,1023.67
2023-01-21T08:36:18.517Z,1023.69
2023-01-21T08:37:18.530Z,1023.73
2023-01-21T08:38:18.509Z,1023.74
2023-01-21T08:39:18.480Z,1023.77
2023-01-21T08:40:18.494Z,1023.78
2023-01-21T08:41:18.467Z,1023.72
2023-01-21T08:42:18.462Z,1023.77
2023-01-21T08:43:18.440Z,1023.74
2023-01-21T08:44:18.432Z,1023.72
2023-01-21T08:45:18.679Z,1023.72
2023-01-21T08:46:18.411Z,1023.79
2023-01-21T08:47:18.403Z,1023.71
2023-01-21T08:48:18.411Z,1023.65
2023-01-21T08:49:18.386Z,1023.74
2023-01-21T08:50:18.380Z,1023.73
2023-01-21T08:51:18.442Z,1023.76
2023-01-21T08:52:18.349Z,1023.74
2023-01-21T08:53:18.356Z,1023.81
2023-01-21T08:54:18.332Z,1023.69
2023-01-21T08:55:18.638Z,1023.77
2023-01-21T08:56:18.320Z,1023.80
2023-01-21T08:57:18.303Z,1023.76
2023-01-21T08:58:18.283Z,1023.69
2023-01-21T08:59:18.278Z,1023.66
2023-01-21T09:00:18.265Z,1023.74
2023-01-21T09:01:18.344Z,1023.72
2023-01-21T09:02:18.319Z,1023.78
2023-01-21T09:03:18.248Z,1023.74
2023-01-21T09:04:18.222Z,1023.68
2023-01-21T09:05:18.553Z,1023.70
2023-01-21T09:06:18.201Z,1023.73
2023-01-21T09:07:18.196Z,1023.70
2023-01-21T09:08:18.185Z,1023.69
2023-01-21T09:09:18.199Z,1023.76
2023-01-21T09:10:18.168Z,1023.73
2023-01-21T09:11:18.171Z,1023.79
2023-01-21T09:12:18.146Z,1023.77
2023-01-21T09:13:18.136Z,1023.76
2023-01-21T09:14:18.118Z,1023.74
2023-01-21T09:15:18.458Z,1023.79
2023-01-21T09:16:18.173Z,1023.77
2023-01-21T09:17:18.157Z,1023.77
2023-01-21T09:18:18.084Z,1023.78
2023-01-21T09:19:18.064Z,1023.77
2023-01-21T09:20:18.058Z,1023.81
2023-01-21T09:21:18.047Z,1023.83
2023-01-21T09:22:18.039Z,1023.83
2023-01-21T09:23:18.029Z,1023.84
2023-01-21T09:24:18.039Z,1023.78
2023-01-21T09:25:18.547Z,1023.85
2023-01-21T09:26:18.015Z,1023.85
2023-01-21T09:27:17.983Z,1023.86
2023-01-21T09:28:17.968Z,1023.92
2023-01-21T09:29:17.981Z,1023.78
2023-01-21T09:30:17.954Z,1023.80
2023-01-21T09:31:17.976Z,1023.80
2023-01-21T09:32:17.923Z,1023.83
2023-01-21T09:33:17.934Z,1023.82
2023-01-21T09:34:17.909Z,1023.84
2023-01-21T09:35:18.249Z,1023.81
2023-01-21T09:36:17.897Z,1023.80
2023-01-21T09:37:17.901Z,1023.84
2023-01-21T09:38:17.870Z,1023.83
2023-01-21T09:39:17.854Z,1023.85
2023-01-21T09:40:17.844Z,1023.83
2023-01-21T09:41:17.835Z,1023.86
2023-01-21T09:42:17.844Z,1023.81
2023-01-21T09:43:17.864Z,1023.86
2023-01-21T09:44:17.811Z,1023.87
2023-01-21T09:45:18.215Z,1023.88
2023-01-21T09:46:17.857Z,1023.90
2023-01-21T09:47:17.775Z,1023.87
2023-01-21T09:48:17.771Z,1023.91
2023-01-21T09:49:17.787Z,1023.93
2023-01-21T09:50:17.745Z,1023.88
2023-01-21T09:51:17.756Z,1023.90
2023-01-21T09:52:17.731Z,1023.95
2023-01-21T09:53:17.748Z,1023.87
2023-01-21T09:54:17.705Z,1023.90
2023-01-21T09:55:18.197Z,1023.92
2023-01-21T09:56:17.681Z,1023.91
2023-01-21T09:57:17.684Z,1023.89
2023-01-21T09:58:17.673Z,1023.81
2023-01-21T09:59:19.503Z,1023.85
2023-01-21T10:00:17.651Z,1023.82
2023-01-21T10:01:17.695Z,1023.85
2023-01-21T10:02:17.613Z,1023.79
2023-01-21T10:03:17.609Z,1023.75
2023-01-21T10:04:17.657Z,1023.80
2023-01-21T10:05:17.999Z,1023.77
2023-01-21T10:06:17.567Z,1023.78
2023-01-21T10:07:17.560Z,1023.84
2023-01-21T10:08:17.544Z,1023.86
2023-01-21T10:09:17.539Z,1023.85
2023-01-21T10:10:17.579Z,1023.78
2023-01-21T10:11:17.519Z,1023.79
2023-01-21T10:12:17.503Z,1023.82
2023-01-21T10:13:17.496Z,1023.89
2023-01-21T10:14:17.503Z,1023.86
2023-01-21T10:15:17.736Z,1023.84
2023-01-21T10:16:17.536Z,1023.88
2023-01-21T10:17:17.448Z,1023.85
2023-01-21T10:18:17.441Z,1023.80
2023-01-21T10:19:17.433Z,1023.84
2023-01-21T10:20:17.434Z,1023.84
2023-01-21T10:21:17.438Z,1023.80
2023-01-21T10:22:17.415Z,1023.79
2023-01-21T10:23:17.391Z,1023.78
2023-01-21T10:24:17.394Z,1023.77
2023-01-21T10:25:17.788Z,1023.73
2023-01-21T10:26:17.363Z,1023.78
2023-01-21T10:27:17.351Z,1023.76
2023-01-21T10:28:17.330Z,1023.77
2023-01-21T10:29:17.333Z,1023.77
2023-01-21T10:30:17.323Z,1023.76
2023-01-21T10:31:17.435Z,1023.74
2023-01-21T10:32:17.301Z,1023.70
2023-01-21T10:33:17.289Z,1023.75
2023-01-21T10:34:17.269Z,1023.71
2023-01-21T10:35:17.622Z,1023.73
2023-01-21T10:36:17.280Z,1023.71
2023-01-21T10:37:17.260Z,1023.74
2023-01-21T10:38:17.235Z,1023.89
2023-01-21T10:39:17.246Z,1023.78
2023-01-21T10:40:17.250Z,1023.67
2023-01-21T10:41:17.204Z,1023.66
2023-01-21T10:42:17.194Z,1023.71
2023-01-21T10:43:17.180Z,1023.71
2023-01-21T10:44:17.182Z,1023.73
2023-01-21T10:45:17.515Z,1023.64
2023-01-21T10:46:17.231Z,1023.69
2023-01-21T10:47:17.139Z,1023.69
2023-01-21T10:48:17.121Z,1023.69
2023-01-21T10:49:17.106Z,1023.63
2023-01-21T10:50:17.104Z,1023.67
2023-01-21T10:51:17.132Z,1023.58
2023-01-21T10:52:17.106Z,1023.64
2023-01-21T10:53:17.094Z,1023.59
2023-01-21T10:54:17.086Z,1023.57
2023-01-21T10:55:17.273Z,1023.58
2023-01-21T10:56:17.063Z,1023.57
2023-01-21T10:57:17.031Z,1023.60
2023-01-21T10:58:17.049Z,1023.64
2023-01-21T10:59:17.042Z,1023.60
2023-01-21T11:00:17.006Z,1023.65
2023-01-21T11:01:17.102Z,1023.63
2023-01-21T11:02:17.098Z,1023.62
2023-01-21T11:03:16.964Z,1023.66
2023-01-21T11:04:16.956Z,1023.57
2023-01-21T11:05:17.257Z,1023.59
2023-01-21T11:06:16.939Z,1023.52
2023-01-21T11:07:16.940Z,1023.56
2023-01-21T11:08:16.917Z,1023.58
2023-01-21T11:09:16.927Z,1023.51
2023-01-21T11:10:16.893Z,1023.49
2023-01-21T11:11:16.879Z,1023.48
2023-01-21T11:12:16.886Z,1023.42
2023-01-21T11:13:16.861Z,1023.46
2023-01-21T11:14:16.854Z,1023.47
2023-01-21T11:15:17.224Z,1023.50
2023-01-21T11:16:16.821Z,1023.47
2023-01-21T11:17:16.821Z,1023.43
2023-01-21T11:18:16.817Z,1023.38
2023-01-21T11:19:16.836Z,1023.42
2023-01-21T11:20:16.792Z,1023.43
2023-01-21T11:21:16.779Z,1023.38
2023-01-21T11:22:16.768Z,1023.39
2023-01-21T11:23:16.761Z,1023.36
2023-01-21T11:24:16.737Z,1023.37
2023-01-21T11:25:17.030Z,1023.35
2023-01-21T11:26:16.714Z,1023.35
2023-01-21T11:27:16.711Z,1023.34
2023-01-21T11:28:16.706Z,1023.25
2023-01-21T11:29:16.684Z,1023.24
2023-01-21T11:30:37.274Z,1023.27
2023-01-21T11:31:17.781Z,1023.20
2023-01-21T11:32:16.776Z,1023.22
2023-01-21T11:33:16.645Z,1023.20
2023-01-21T11:34:16.641Z,1023.16
2023-01-21T11:35:16.647Z,1023.18
2023-01-21T11:36:16.623Z,1023.23
2023-01-21T11:37:16.600Z,1023.18
2023-01-21T11:38:16.590Z,1023.18
2023-01-21T11:39:16.595Z,1023.11
2023-01-21T11:40:19.044Z,1023.07
2023-01-21T11:41:16.605Z,1023.10
2023-01-21T11:42:16.552Z,1023.09
2023-01-21T11:43:16.543Z,1023.04
2023-01-21T11:44:16.540Z,1023.01
2023-01-21T11:45:16.782Z,1023.03
2023-01-21T11:46:16.542Z,1023.00
2023-01-21T11:47:16.529Z,1023.01
2023-01-21T11:48:16.480Z,1022.98
2023-01-21T11:49:16.480Z,1022.95
2023-01-21T11:50:16.799Z,1022.93
2023-01-21T11:51:16.539Z,1022.88
2023-01-21T11:52:16.464Z,1022.90
2023-01-21T11:53:16.455Z,1022.95
2023-01-21T11:54:16.434Z,1022.95
2023-01-21T11:55:16.415Z,1022.92
2023-01-21T11:56:16.400Z,1022.93
2023-01-21T11:57:16.415Z,1022.80
2023-01-21T11:58:16.381Z,1022.88
2023-01-21T11:59:16.377Z,1022.88
2023-01-21T12:00:16.635Z,1022.88
2023-01-21T12:01:16.344Z,1022.86
2023-01-21T12:02:16.403Z,1022.76
2023-01-21T12:03:16.325Z,1022.79
2023-01-21T12:04:16.312Z,1022.75
2023-01-21T12:05:16.309Z,1022.74
2023-01-21T12:06:16.300Z,1022.71
2023-01-21T12:07:16.321Z,1022.69
2023-01-21T12:08:16.287Z,1022.74
2023-01-21T12:09:16.270Z,1022.71
2023-01-21T12:10:16.626Z,1022.68